sensor_id;sensor_type;location;lat;lon;timestamp;P1;durP1;ratioP1;P2;durP2;ratioP2
19679;SDS011;9989;48.962;9.182;2024-03-07T00:00:14;35.23;;;19.73;;
19679;SDS011;9989;48.962;9.182;2024-03-07T00:02:41;39.27;;;21.93;;
19679;SDS011;9989;48.962;9.182;2024-03-07T00:05:07;37.23;;;21.33;;
19679;SDS011;9989;48.962;9.182;2024-03-07T00:07:33;36.40;;;21.23;;
19679;SDS011;9989;48.962;9.182;2024-03-07T00:09:59;42.93;;;22.97;;
19679;SDS011;9989;48.962;9.182;2024-03-07T00:12:25;38.23;;;21.70;;
19679;SDS011;9989;48.962;9.182;2024-03-07T00:14:52;39.23;;;22.00;;
19679;SDS011;9989;48.962;9.182;2024-03-07T00:17:18;41.43;;;21.63;;
19679;SDS011;9989;48.962;9.182;2024-03-07T00:19:44;38.90;;;22.30;;
19679;SDS011;9989;48.962;9.182;2024-03-07T00:22:10;33.73;;;20.17;;
19679;SDS011;9989;48.962;9.182;2024-03-07T00:24:35;37.63;;;20.33;;
19679;SDS011;9989;48.962;9.182;2024-03-07T00:27:02;38.23;;;21.00;;
19679;SDS011;9989;48.962;9.182;2024-03-07T00:29:28;35.97;;;20.40;;
19679;SDS011;9989;48.962;9.182;2024-03-07T00:31:54;37.97;;;21.03;;
19679;SDS011;9989;48.962;9.182;2024-03-07T00:34:20;34.57;;;20.33;;
19679;SDS011;9989;48.962;9.182;2024-03-07T00:36:48;40.00;;;21.63;;
19679;SDS011;9989;48.962;9.182;2024-03-07T00:39:13;37.20;;;21.33;;
19679;SDS011;9989;48.962;9.182;2024-03-07T00:41:39;34.53;;;20.53;;
19679;SDS011;9989;48.962;9.182;2024-03-07T00:44:06;34.90;;;19.87;;
19679;SDS011;9989;48.962;9.182;2024-03-07T00:46:34;33.07;;;19.27;;
19679;SDS011;9989;48.962;9.182;2024-03-07T00:49:01;34.97;;;20.33;;
19679;SDS011;9989;48.962;9.182;2024-03-07T00:51:26;33.23;;;20.60;;
19679;SDS011;9989;48.962;9.182;2024-03-07T00:53:52;33.23;;;19.17;;
19679;SDS011;9989;48.962;9.182;2024-03-07T00:56:17;34.43;;;17.93;;
19679;SDS011;9989;48.962;9.182;2024-03-07T00:58:43;36.30;;;20.80;;
19679;SDS011;9989;48.962;9.182;2024-03-07T01:01:09;33.17;;;19.17;;
19679;SDS011;9989;48.962;9.182;2024-03-07T01:03:36;34.07;;;17.87;;
19679;SDS011;9989;48.962;9.182;2024-03-07T01:06:03;33.57;;;19.30;;
19679;SDS011;9989;48.962;9.182;2024-03-07T01:08:28;29.50;;;17.73;;
19679;SDS011;9989;48.962;9.182;2024-03-07T01:10:57;35.53;;;19.30;;
19679;SDS011;9989;48.962;9.182;2024-03-07T01:13:23;32.53;;;18.53;;
19679;SDS011;9989;48.962;9.182;2024-03-07T01:15:49;33.40;;;19.13;;
19679;SDS011;9989;48.962;9.182;2024-03-07T01:18:15;33.40;;;19.20;;
19679;SDS011;9989;48.962;9.182;2024-03-07T01:20:41;34.93;;;19.53;;
19679;SDS011;9989;48.962;9.182;2024-03-07T01:23:07;36.20;;;20.67;;
19679;SDS011;9989;48.962;9.182;2024-03-07T01:25:33;39.63;;;23.87;;
19679;SDS011;9989;48.962;9.182;2024-03-07T01:27:59;43.47;;;23.60;;
19679;SDS011;9989;48.962;9.182;2024-03-07T01:30:25;48.37;;;24.63;;
19679;SDS011;9989;48.962;9.182;2024-03-07T01:32:53;45.73;;;24.27;;
19679;SDS011;9989;48.962;9.182;2024-03-07T01:35:19;46.03;;;25.03;;
19679;SDS011;9989;48.962;9.182;2024-03-07T01:37:44;50.27;;;25.87;;
19679;SDS011;9989;48.962;9.182;2024-03-07T01:40:10;43.97;;;25.07;;
19679;SDS011;9989;48.962;9.182;2024-03-07T01:42:36;42.47;;;23.20;;
19679;SDS011;9989;48.962;9.182;2024-03-07T01:45:02;48.73;;;26.87;;
19679;SDS011;9989;48.962;9.182;2024-03-07T01:47:30;46.37;;;24.57;;
19679;SDS011;9989;48.962;9.182;2024-03-07T01:49:56;45.50;;;25.53;;
19679;SDS011;9989;48.962;9.182;2024-03-07T01:52:21;48.27;;;26.23;;
19679;SDS011;9989;48.962;9.182;2024-03-07T01:54:47;46.33;;;25.03;;
19679;SDS011;9989;48.962;9.182;2024-03-07T01:57:14;43.30;;;23.77;;
19679;SDS011;9989;48.962;9.182;2024-03-07T01:59:41;48.37;;;25.70;;
19679;SDS011;9989;48.962;9.182;2024-03-07T02:02:08;44.20;;;24.40;;
19679;SDS011;9989;48.962;9.182;2024-03-07T02:04:33;44.60;;;25.03;;
19679;SDS011;9989;48.962;9.182;2024-03-07T02:06:59;45.97;;;26.33;;
19679;SDS011;9989;48.962;9.182;2024-03-07T02:09:25;51.03;;;27.17;;
19679;SDS011;9989;48.962;9.182;2024-03-07T02:11:50;45.73;;;24.20;;
19679;SDS011;9989;48.962;9.182;2024-03-07T02:14:16;47.40;;;25.93;;
19679;SDS011;9989;48.962;9.182;2024-03-07T02:16:41;52.20;;;27.87;;
19679;SDS011;9989;48.962;9.182;2024-03-07T02:19:09;45.33;;;24.30;;
19679;SDS011;9989;48.962;9.182;2024-03-07T02:21:38;49.50;;;26.53;;
19679;SDS011;9989;48.962;9.182;2024-03-07T02:24:04;48.43;;;25.27;;
19679;SDS011;9989;48.962;9.182;2024-03-07T02:26:30;45.00;;;25.80;;
19679;SDS011;9989;48.962;9.182;2024-03-07T02:28:55;39.77;;;22.93;;
19679;SDS011;9989;48.962;9.182;2024-03-07T02:31:21;42.43;;;24.50;;
19679;SDS011;9989;48.962;9.182;2024-03-07T02:33:59;46.70;;;24.23;;
19679;SDS011;9989;48.962;9.182;2024-03-07T02:36:26;53.53;;;27.37;;
19679;SDS011;9989;48.962;9.182;2024-03-07T02:38:52;46.53;;;24.73;;
19679;SDS011;9989;48.962;9.182;2024-03-07T02:41:17;41.70;;;23.10;;
19679;SDS011;9989;48.962;9.182;2024-03-07T02:43:43;45.33;;;25.17;;
19679;SDS011;9989;48.962;9.182;2024-03-07T02:46:08;38.43;;;21.83;;
19679;SDS011;9989;48.962;9.182;2024-03-07T02:48:36;39.93;;;22.90;;
19679;SDS011;9989;48.962;9.182;2024-03-07T02:51:06;36.70;;;21.47;;
19679;SDS011;9989;48.962;9.182;2024-03-07T02:53:32;42.03;;;22.57;;
19679;SDS011;9989;48.962;9.182;2024-03-07T02:55:58;39.37;;;21.67;;
19679;SDS011;9989;48.962;9.182;2024-03-07T02:58:23;41.17;;;21.97;;
19679;SDS011;9989;48.962;9.182;2024-03-07T03:00:58;40.87;;;23.07;;
19679;SDS011;9989;48.962;9.182;2024-03-07T03:03:25;39.83;;;23.03;;
19679;SDS011;9989;48.962;9.182;2024-03-07T03:05:51;39.23;;;21.87;;
19679;SDS011;9989;48.962;9.182;2024-03-07T03:08:17;35.93;;;20.70;;
19679;SDS011;9989;48.962;9.182;2024-03-07T03:10:42;35.93;;;20.10;;
19679;SDS011;9989;48.962;9.182;2024-03-07T03:13:09;38.37;;;20.37;;
19679;SDS011;9989;48.962;9.182;2024-03-07T03:15:35;38.53;;;20.57;;
19679;SDS011;9989;48.962;9.182;2024-03-07T03:18:02;39.47;;;21.63;;
19679;SDS011;9989;48.962;9.182;2024-03-07T03:20:29;36.10;;;20.50;;
19679;SDS011;9989;48.962;9.182;2024-03-07T03:23:03;38.13;;;20.30;;
19679;SDS011;9989;48.962;9.182;2024-03-07T03:25:30;36.87;;;20.40;;
19679;SDS011;9989;48.962;9.182;2024-03-07T03:28:00;36.40;;;19.97;;
19679;SDS011;9989;48.962;9.182;2024-03-07T03:30:26;41.20;;;22.57;;
19679;SDS011;9989;48.962;9.182;2024-03-07T03:32:52;41.97;;;21.73;;
19679;SDS011;9989;48.962;9.182;2024-03-07T03:35:17;40.27;;;23.47;;
19679;SDS011;9989;48.962;9.182;2024-03-07T03:37:44;43.53;;;23.10;;
19679;SDS011;9989;48.962;9.182;2024-03-07T03:40:10;41.43;;;22.20;;
19679;SDS011;9989;48.962;9.182;2024-03-07T03:42:38;44.73;;;23.13;;
19679;SDS011;9989;48.962;9.182;2024-03-07T03:45:04;39.63;;;20.63;;
19679;SDS011;9989;48.962;9.182;2024-03-07T03:47:37;38.40;;;21.57;;
19679;SDS011;9989;48.962;9.182;2024-03-07T03:50:06;41.03;;;22.37;;
19679;SDS011;9989;48.962;9.182;2024-03-07T03:52:33;39.47;;;21.67;;
19679;SDS011;9989;48.962;9.182;2024-03-07T03:55:00;42.73;;;24.70;;
19679;SDS011;9989;48.962;9.182;2024-03-07T03:57:27;44.03;;;24.53;;
19679;SDS011;9989;48.962;9.182;2024-03-07T03:59:53;42.27;;;23.43;;
19679;SDS011;9989;48.962;9.182;2024-03-07T04:02:20;39.50;;;21.80;;
19679;SDS011;9989;48.962;9.182;2024-03-07T04:04:46;41.30;;;22.03;;
19679;SDS011;9989;48.962;9.182;2024-03-07T04:07:13;43.90;;;22.97;;
19679;SDS011;9989;48.962;9.182;2024-03-07T04:09:40;48.53;;;24.77;;
19679;SDS011;9989;48.962;9.182;2024-03-07T04:12:06;43.57;;;24.37;;
19679;SDS011;9989;48.962;9.182;2024-03-07T04:14:35;39.23;;;20.93;;
19679;SDS011;9989;48.962;9.182;2024-03-07T04:17:10;33.23;;;19.20;;
19679;SDS011;9989;48.962;9.182;2024-03-07T04:19:39;36.17;;;19.50;;
19679;SDS011;9989;48.962;9.182;2024-03-07T04:22:06;35.07;;;19.83;;
19679;SDS011;9989;48.962;9.182;2024-03-07T04:24:33;41.40;;;21.53;;
19679;SDS011;9989;48.962;9.182;2024-03-07T04:26:59;36.53;;;20.20;;
19679;SDS011;9989;48.962;9.182;2024-03-07T04:29:28;39.20;;;20.93;;
19679;SDS011;9989;48.962;9.182;2024-03-07T04:31:58;38.57;;;20.13;;
19679;SDS011;9989;48.962;9.182;2024-03-07T04:34:24;34.13;;;19.37;;
19679;SDS011;9989;48.962;9.182;2024-03-07T04:36:50;34.20;;;19.90;;
19679;SDS011;9989;48.962;9.182;2024-03-07T04:39:15;31.40;;;17.47;;
19679;SDS011;9989;48.962;9.182;2024-03-07T04:41:52;32.77;;;17.93;;
19679;SDS011;9989;48.962;9.182;2024-03-07T04:44:19;30.63;;;17.00;;
19679;SDS011;9989;48.962;9.182;2024-03-07T04:46:47;31.70;;;18.20;;
19679;SDS011;9989;48.962;9.182;2024-03-07T04:49:14;31.13;;;17.80;;
19679;SDS011;9989;48.962;9.182;2024-03-07T04:51:40;28.23;;;16.70;;
19679;SDS011;9989;48.962;9.182;2024-03-07T04:54:06;34.27;;;18.23;;
19679;SDS011;9989;48.962;9.182;2024-03-07T04:56:31;29.70;;;17.00;;
19679;SDS011;9989;48.962;9.182;2024-03-07T04:58:57;31.43;;;17.87;;
19679;SDS011;9989;48.962;9.182;2024-03-07T05:01:23;31.17;;;17.13;;
19679;SDS011;9989;48.962;9.182;2024-03-07T05:03:50;30.10;;;17.07;;
19679;SDS011;9989;48.962;9.182;2024-03-07T05:06:17;32.10;;;18.50;;
19679;SDS011;9989;48.962;9.182;2024-03-07T05:08:43;31.47;;;16.83;;
19679;SDS011;9989;48.962;9.182;2024-03-07T05:11:09;32.07;;;17.03;;
19679;SDS011;9989;48.962;9.182;2024-03-07T05:13:35;31.90;;;17.17;;
19679;SDS011;9989;48.962;9.182;2024-03-07T05:16:02;32.40;;;18.07;;
19679;SDS011;9989;48.962;9.182;2024-03-07T05:18:27;33.40;;;18.17;;
19679;SDS011;9989;48.962;9.182;2024-03-07T05:20:53;31.63;;;18.63;;
19679;SDS011;9989;48.962;9.182;2024-03-07T05:23:19;30.57;;;17.90;;
19679;SDS011;9989;48.962;9.182;2024-03-07T05:25:45;33.67;;;18.63;;
19679;SDS011;9989;48.962;9.182;2024-03-07T05:28:11;35.77;;;19.13;;
19679;SDS011;9989;48.962;9.182;2024-03-07T05:30:37;34.57;;;20.20;;
19679;SDS011;9989;48.962;9.182;2024-03-07T05:33:02;35.67;;;19.83;;
19679;SDS011;9989;48.962;9.182;2024-03-07T05:35:29;40.33;;;21.63;;
19679;SDS011;9989;48.962;9.182;2024-03-07T05:37:54;37.77;;;19.73;;
19679;SDS011;9989;48.962;9.182;2024-03-07T05:40:21;37.17;;;21.13;;
19679;SDS011;9989;48.962;9.182;2024-03-07T05:42:47;38.47;;;21.57;;
19679;SDS011;9989;48.962;9.182;2024-03-07T05:45:13;40.57;;;21.30;;
19679;SDS011;9989;48.962;9.182;2024-03-07T05:47:39;34.97;;;19.57;;
19679;SDS011;9989;48.962;9.182;2024-03-07T05:50:05;39.10;;;21.60;;
19679;SDS011;9989;48.962;9.182;2024-03-07T05:52:32;38.93;;;21.47;;
19679;SDS011;9989;48.962;9.182;2024-03-07T05:54:58;37.87;;;20.23;;
19679;SDS011;9989;48.962;9.182;2024-03-07T05:57:23;37.03;;;19.87;;
19679;SDS011;9989;48.962;9.182;2024-03-07T05:59:50;38.90;;;21.20;;
19679;SDS011;9989;48.962;9.182;2024-03-07T06:02:15;41.47;;;23.50;;
19679;SDS011;9989;48.962;9.182;2024-03-07T06:04:42;41.97;;;22.20;;
19679;SDS011;9989;48.962;9.182;2024-03-07T06:07:08;42.90;;;22.73;;
19679;SDS011;9989;48.962;9.182;2024-03-07T06:09:35;39.70;;;22.00;;
19679;SDS011;9989;48.962;9.182;2024-03-07T06:12:01;37.50;;;20.77;;
19679;SDS011;9989;48.962;9.182;2024-03-07T06:14:29;41.20;;;22.53;;
19679;SDS011;9989;48.962;9.182;2024-03-07T06:16:55;41.77;;;21.63;;
19679;SDS011;9989;48.962;9.182;2024-03-07T06:19:23;36.43;;;19.97;;
19679;SDS011;9989;48.962;9.182;2024-03-07T06:21:48;41.33;;;22.77;;
19679;SDS011;9989;48.962;9.182;2024-03-07T06:24:14;41.33;;;21.87;;
19679;SDS011;9989;48.962;9.182;2024-03-07T06:26:42;38.67;;;20.83;;
19679;SDS011;9989;48.962;9.182;2024-03-07T06:29:28;39.97;;;22.00;;
19679;SDS011;9989;48.962;9.182;2024-03-07T06:31:54;38.23;;;21.17;;
19679;SDS011;9989;48.962;9.182;2024-03-07T06:34:20;39.93;;;20.73;;
19679;SDS011;9989;48.962;9.182;2024-03-07T06:36:45;36.03;;;20.37;;
19679;SDS011;9989;48.962;9.182;2024-03-07T06:39:11;40.77;;;22.30;;
19679;SDS011;9989;48.962;9.182;2024-03-07T06:41:37;40.90;;;21.90;;
19679;SDS011;9989;48.962;9.182;2024-03-07T06:44:03;39.73;;;21.97;;
19679;SDS011;9989;48.962;9.182;2024-03-07T06:46:29;40.20;;;21.53;;
19679;SDS011;9989;48.962;9.182;2024-03-07T06:48:55;38.87;;;22.13;;
19679;SDS011;9989;48.962;9.182;2024-03-07T06:51:23;40.07;;;22.37;;
19679;SDS011;9989;48.962;9.182;2024-03-07T06:53:49;39.23;;;20.80;;
19679;SDS011;9989;48.962;9.182;2024-03-07T06:56:15;41.80;;;22.43;;
19679;SDS011;9989;48.962;9.182;2024-03-07T06:58:41;40.80;;;21.50;;
19679;SDS011;9989;48.962;9.182;2024-03-07T07:01:07;41.53;;;23.30;;
19679;SDS011;9989;48.962;9.182;2024-03-07T07:03:38;46.37;;;26.00;;
19679;SDS011;9989;48.962;9.182;2024-03-07T07:06:04;48.43;;;26.30;;
19679;SDS011;9989;48.962;9.182;2024-03-07T07:08:33;47.37;;;25.80;;
19679;SDS011;9989;48.962;9.182;2024-03-07T07:10:58;44.97;;;25.17;;
19679;SDS011;9989;48.962;9.182;2024-03-07T07:13:24;49.50;;;26.53;;
19679;SDS011;9989;48.962;9.182;2024-03-07T07:15:50;43.47;;;25.40;;
19679;SDS011;9989;48.962;9.182;2024-03-07T07:18:16;47.07;;;25.77;;
19679;SDS011;9989;48.962;9.182;2024-03-07T07:20:42;44.53;;;24.83;;
19679;SDS011;9989;48.962;9.182;2024-03-07T07:23:08;41.40;;;22.90;;
19679;SDS011;9989;48.962;9.182;2024-03-07T07:25:33;39.97;;;21.77;;
19679;SDS011;9989;48.962;9.182;2024-03-07T07:27:59;43.00;;;22.87;;
19679;SDS011;9989;48.962;9.182;2024-03-07T07:30:25;43.80;;;24.47;;
19679;SDS011;9989;48.962;9.182;2024-03-07T07:32:52;45.10;;;25.03;;
19679;SDS011;9989;48.962;9.182;2024-03-07T07:35:21;42.03;;;24.60;;
19679;SDS011;9989;48.962;9.182;2024-03-07T07:37:48;41.70;;;24.87;;
19679;SDS011;9989;48.962;9.182;2024-03-07T07:40:20;43.87;;;24.03;;
19679;SDS011;9989;48.962;9.182;2024-03-07T07:42:48;42.73;;;24.03;;
19679;SDS011;9989;48.962;9.182;2024-03-07T07:45:16;37.70;;;21.87;;
19679;SDS011;9989;48.962;9.182;2024-03-07T07:47:47;35.57;;;20.80;;
19679;SDS011;9989;48.962;9.182;2024-03-07T07:50:17;35.23;;;20.50;;
19679;SDS011;9989;48.962;9.182;2024-03-07T07:55:11;38.37;;;21.97;;
19679;SDS011;9989;48.962;9.182;2024-03-07T07:57:43;37.27;;;21.87;;
19679;SDS011;9989;48.962;9.182;2024-03-07T08:00:19;40.57;;;23.80;;
19679;SDS011;9989;48.962;9.182;2024-03-07T08:05:16;35.37;;;19.93;;
19679;SDS011;9989;48.962;9.182;2024-03-07T08:07:44;35.67;;;21.07;;
19679;SDS011;9989;48.962;9.182;2024-03-07T08:10:12;33.47;;;20.20;;
19679;SDS011;9989;48.962;9.182;2024-03-07T08:15:33;33.37;;;19.40;;
19679;SDS011;9989;48.962;9.182;2024-03-07T08:17:59;34.37;;;19.27;;
19679;SDS011;9989;48.962;9.182;2024-03-07T08:20:25;31.97;;;19.40;;
19679;SDS011;9989;48.962;9.182;2024-03-07T08:22:52;31.80;;;18.80;;
19679;SDS011;9989;48.962;9.182;2024-03-07T08:25:20;29.73;;;18.93;;
19679;SDS011;9989;48.962;9.182;2024-03-07T08:27:51;31.07;;;19.97;;
19679;SDS011;9989;48.962;9.182;2024-03-07T08:30:18;30.50;;;18.60;;
19679;SDS011;9989;48.962;9.182;2024-03-07T08:32:48;32.93;;;19.03;;
19679;SDS011;9989;48.962;9.182;2024-03-07T08:35:15;28.13;;;17.83;;
19679;SDS011;9989;48.962;9.182;2024-03-07T08:37:42;30.73;;;18.50;;
19679;SDS011;9989;48.962;9.182;2024-03-07T08:40:12;29.63;;;17.87;;
19679;SDS011;9989;48.962;9.182;2024-03-07T08:42:44;31.83;;;17.67;;
19679;SDS011;9989;48.962;9.182;2024-03-07T08:45:11;32.70;;;19.93;;
19679;SDS011;9989;48.962;9.182;2024-03-07T08:47:42;31.07;;;18.37;;
19679;SDS011;9989;48.962;9.182;2024-03-07T08:50:08;32.10;;;19.83;;
19679;SDS011;9989;48.962;9.182;2024-03-07T08:52:34;32.77;;;19.50;;
19679;SDS011;9989;48.962;9.182;2024-03-07T08:55:05;31.80;;;19.17;;
19679;SDS011;9989;48.962;9.182;2024-03-07T08:57:34;32.07;;;18.80;;
19679;SDS011;9989;48.962;9.182;2024-03-07T09:00:01;29.45;;;17.80;;
19679;SDS011;9989;48.962;9.182;2024-03-07T09:02:33;31.73;;;18.70;;
19679;SDS011;9989;48.962;9.182;2024-03-07T09:04:59;28.10;;;17.07;;
19679;SDS011;9989;48.962;9.182;2024-03-07T09:07:25;33.77;;;19.93;;
19679;SDS011;9989;48.962;9.182;2024-03-07T09:09:51;31.60;;;18.07;;
19679;SDS011;9989;48.962;9.182;2024-03-07T09:12:16;30.20;;;17.77;;
19679;SDS011;9989;48.962;9.182;2024-03-07T09:14:43;30.90;;;18.17;;
19679;SDS011;9989;48.962;9.182;2024-03-07T09:17:09;31.50;;;17.93;;
19679;SDS011;9989;48.962;9.182;2024-03-07T09:19:34;32.07;;;18.13;;
19679;SDS011;9989;48.962;9.182;2024-03-07T09:22:00;31.73;;;19.07;;
19679;SDS011;9989;48.962;9.182;2024-03-07T09:24:26;31.07;;;18.03;;
19679;SDS011;9989;48.962;9.182;2024-03-07T09:26:53;30.50;;;18.53;;
19679;SDS011;9989;48.962;9.182;2024-03-07T09:29:21;32.93;;;18.70;;
19679;SDS011;9989;48.962;9.182;2024-03-07T09:31:48;32.30;;;19.17;;
19679;SDS011;9989;48.962;9.182;2024-03-07T09:34:17;34.37;;;18.27;;
19679;SDS011;9989;48.962;9.182;2024-03-07T09:36:44;32.67;;;19.70;;
19679;SDS011;9989;48.962;9.182;2024-03-07T09:39:09;30.03;;;17.87;;
19679;SDS011;9989;48.962;9.182;2024-03-07T09:41:37;29.90;;;17.57;;
19679;SDS011;9989;48.962;9.182;2024-03-07T09:44:04;29.47;;;18.17;;
19679;SDS011;9989;48.962;9.182;2024-03-07T09:46:30;30.00;;;18.17;;
19679;SDS011;9989;48.962;9.182;2024-03-07T09:48:57;31.67;;;18.60;;
19679;SDS011;9989;48.962;9.182;2024-03-07T09:51:23;31.33;;;18.97;;
19679;SDS011;9989;48.962;9.182;2024-03-07T09:53:49;31.30;;;19.13;;
19679;SDS011;9989;48.962;9.182;2024-03-07T09:56:19;37.57;;;19.97;;
19679;SDS011;9989;48.962;9.182;2024-03-07T09:58:47;25.23;;;15.97;;
19679;SDS011;9989;48.962;9.182;2024-03-07T10:01:15;33.20;;;19.50;;
19679;SDS011;9989;48.962;9.182;2024-03-07T10:03:44;27.67;;;17.83;;
19679;SDS011;9989;48.962;9.182;2024-03-07T10:06:12;27.83;;;18.80;;
19679;SDS011;9989;48.962;9.182;2024-03-07T10:08:38;30.37;;;19.63;;
19679;SDS011;9989;48.962;9.182;2024-03-07T10:11:05;24.27;;;17.63;;
19679;SDS011;9989;48.962;9.182;2024-03-07T10:13:33;23.70;;;16.43;;
19679;SDS011;9989;48.962;9.182;2024-03-07T10:16:00;26.20;;;18.10;;
19679;SDS011;9989;48.962;9.182;2024-03-07T10:18:26;27.57;;;18.07;;
19679;SDS011;9989;48.962;9.182;2024-03-07T10:20:55;24.73;;;17.77;;
19679;SDS011;9989;48.962;9.182;2024-03-07T10:23:22;29.83;;;19.53;;
19679;SDS011;9989;48.962;9.182;2024-03-07T10:25:48;24.03;;;18.10;;
19679;SDS011;9989;48.962;9.182;2024-03-07T10:28:19;26.60;;;19.40;;
19679;SDS011;9989;48.962;9.182;2024-03-07T10:30:47;26.07;;;17.37;;
19679;SDS011;9989;48.962;9.182;2024-03-07T10:33:15;26.30;;;17.47;;
19679;SDS011;9989;48.962;9.182;2024-03-07T10:35:42;29.17;;;20.27;;
19679;SDS011;9989;48.962;9.182;2024-03-07T10:38:07;26.47;;;18.53;;
19679;SDS011;9989;48.962;9.182;2024-03-07T10:40:36;24.07;;;18.30;;
19679;SDS011;9989;48.962;9.182;2024-03-07T10:43:07;25.13;;;18.23;;
19679;SDS011;9989;48.962;9.182;2024-03-07T10:45:54;24.83;;;18.23;;
19679;SDS011;9989;48.962;9.182;2024-03-07T10:48:22;27.23;;;19.00;;
19679;SDS011;9989;48.962;9.182;2024-03-07T10:51:09;28.93;;;20.53;;
19679;SDS011;9989;48.962;9.182;2024-03-07T10:56:50;24.03;;;18.43;;
19679;SDS011;9989;48.962;9.182;2024-03-07T10:59:41;26.87;;;18.77;;
19679;SDS011;9989;48.962;9.182;2024-03-07T11:02:19;22.80;;;17.53;;
19679;SDS011;9989;48.962;9.182;2024-03-07T11:04:55;23.60;;;16.20;;
19679;SDS011;9989;48.962;9.182;2024-03-07T11:07:21;26.37;;;17.93;;
19679;SDS011;9989;48.962;9.182;2024-03-07T11:09:51;29.53;;;21.10;;
19679;SDS011;9989;48.962;9.182;2024-03-07T11:12:23;29.07;;;19.77;;
19679;SDS011;9989;48.962;9.182;2024-03-07T11:14:51;26.07;;;16.93;;
19679;SDS011;9989;48.962;9.182;2024-03-07T11:17:20;28.73;;;20.83;;
19679;SDS011;9989;48.962;9.182;2024-03-07T11:19:47;26.33;;;18.20;;
19679;SDS011;9989;48.962;9.182;2024-03-07T11:22:33;25.27;;;17.10;;
19679;SDS011;9989;48.962;9.182;2024-03-07T11:25:02;29.00;;;19.47;;
19679;SDS011;9989;48.962;9.182;2024-03-07T11:27:32;30.83;;;19.50;;
19679;SDS011;9989;48.962;9.182;2024-03-07T11:30:04;31.43;;;20.87;;
19679;SDS011;9989;48.962;9.182;2024-03-07T11:32:35;27.70;;;17.97;;
19679;SDS011;9989;48.962;9.182;2024-03-07T11:35:06;33.53;;;20.57;;
19679;SDS011;9989;48.962;9.182;2024-03-07T11:40:11;33.33;;;19.97;;
19679;SDS011;9989;48.962;9.182;2024-03-07T11:42:46;31.73;;;19.07;;
19679;SDS011;9989;48.962;9.182;2024-03-07T11:45:16;34.00;;;19.73;;
19679;SDS011;9989;48.962;9.182;2024-03-07T11:48:06;35.77;;;21.77;;
19679;SDS011;9989;48.962;9.182;2024-03-07T11:50:32;32.13;;;19.97;;
19679;SDS011;9989;48.962;9.182;2024-03-07T11:53:00;26.53;;;17.57;;
19679;SDS011;9989;48.962;9.182;2024-03-07T11:55:27;25.97;;;16.70;;
19679;SDS011;9989;48.962;9.182;2024-03-07T11:57:53;27.97;;;18.67;;
19679;SDS011;9989;48.962;9.182;2024-03-07T12:00:19;31.60;;;20.47;;
19679;SDS011;9989;48.962;9.182;2024-03-07T12:02:48;27.17;;;18.53;;
19679;SDS011;9989;48.962;9.182;2024-03-07T12:05:14;29.87;;;19.70;;
19679;SDS011;9989;48.962;9.182;2024-03-07T12:07:41;27.20;;;18.77;;
19679;SDS011;9989;48.962;9.182;2024-03-07T12:10:08;31.67;;;20.00;;
19679;SDS011;9989;48.962;9.182;2024-03-07T12:12:35;34.73;;;20.87;;
19679;SDS011;9989;48.962;9.182;2024-03-07T12:15:04;31.87;;;20.03;;
19679;SDS011;9989;48.962;9.182;2024-03-07T12:17:46;32.63;;;20.93;;
19679;SDS011;9989;48.962;9.182;2024-03-07T12:20:15;32.27;;;20.90;;
19679;SDS011;9989;48.962;9.182;2024-03-07T12:22:55;33.50;;;20.37;;
19679;SDS011;9989;48.962;9.182;2024-03-07T12:25:22;34.43;;;20.87;;
19679;SDS011;9989;48.962;9.182;2024-03-07T12:30:58;33.67;;;21.30;;
19679;SDS011;9989;48.962;9.182;2024-03-07T12:33:27;32.73;;;19.63;;
19679;SDS011;9989;48.962;9.182;2024-03-07T12:35:54;32.83;;;20.40;;
19679;SDS011;9989;48.962;9.182;2024-03-07T12:38:30;33.67;;;20.33;;
19679;SDS011;9989;48.962;9.182;2024-03-07T12:41:07;30.80;;;18.60;;
19679;SDS011;9989;48.962;9.182;2024-03-07T12:43:42;34.73;;;20.27;;
19679;SDS011;9989;48.962;9.182;2024-03-07T12:46:10;30.53;;;19.53;;
19679;SDS011;9989;48.962;9.182;2024-03-07T12:48:40;32.80;;;19.93;;
19679;SDS011;9989;48.962;9.182;2024-03-07T12:51:05;31.97;;;19.53;;
19679;SDS011;9989;48.962;9.182;2024-03-07T12:53:31;33.30;;;21.10;;
19679;SDS011;9989;48.962;9.182;2024-03-07T12:55:59;32.73;;;19.87;;
19679;SDS011;9989;48.962;9.182;2024-03-07T12:58:25;28.80;;;18.43;;
19679;SDS011;9989;48.962;9.182;2024-03-07T13:00:54;36.67;;;20.37;;
19679;SDS011;9989;48.962;9.182;2024-03-07T13:03:23;36.13;;;21.20;;
19679;SDS011;9989;48.962;9.182;2024-03-07T13:05:55;33.70;;;20.17;;
19679;SDS011;9989;48.962;9.182;2024-03-07T13:12:09;32.03;;;19.97;;
19679;SDS011;9989;48.962;9.182;2024-03-07T13:14:34;36.13;;;20.87;;
19679;SDS011;9989;48.962;9.182;2024-03-07T13:17:03;34.73;;;20.50;;
19679;SDS011;9989;48.962;9.182;2024-03-07T13:19:30;34.70;;;19.93;;
19679;SDS011;9989;48.962;9.182;2024-03-07T13:21:56;36.73;;;21.87;;
19679;SDS011;9989;48.962;9.182;2024-03-07T13:24:22;34.57;;;21.63;;
19679;SDS011;9989;48.962;9.182;2024-03-07T13:26:49;35.03;;;20.40;;
19679;SDS011;9989;48.962;9.182;2024-03-07T13:29:15;34.17;;;19.77;;
19679;SDS011;9989;48.962;9.182;2024-03-07T13:31:44;38.13;;;22.20;;
19679;SDS011;9989;48.962;9.182;2024-03-07T13:34:10;37.70;;;22.57;;
19679;SDS011;9989;48.962;9.182;2024-03-07T13:36:39;38.20;;;22.53;;
19679;SDS011;9989;48.962;9.182;2024-03-07T13:39:09;36.63;;;22.50;;
19679;SDS011;9989;48.962;9.182;2024-03-07T13:41:40;37.23;;;22.27;;
19679;SDS011;9989;48.962;9.182;2024-03-07T13:44:13;39.57;;;23.17;;
19679;SDS011;9989;48.962;9.182;2024-03-07T13:46:39;36.93;;;21.23;;
19679;SDS011;9989;48.962;9.182;2024-03-07T13:49:05;37.00;;;22.17;;
19679;SDS011;9989;48.962;9.182;2024-03-07T13:51:38;39.07;;;22.57;;
19679;SDS011;9989;48.962;9.182;2024-03-07T13:54:14;38.73;;;21.87;;
19679;SDS011;9989;48.962;9.182;2024-03-07T13:59:59;39.60;;;23.07;;
19679;SDS011;9989;48.962;9.182;2024-03-07T14:11:13;36.93;;;21.40;;
19679;SDS011;9989;48.962;9.182;2024-03-07T14:23:01;43.00;;;24.97;;
19679;SDS011;9989;48.962;9.182;2024-03-07T14:30:50;45.63;;;25.67;;
19679;SDS011;9989;48.962;9.182;2024-03-07T14:33:32;40.65;;;25.30;;
19679;SDS011;9989;48.962;9.182;2024-03-07T14:36:14;41.97;;;25.00;;
19679;SDS011;9989;48.962;9.182;2024-03-07T14:38:51;42.67;;;24.77;;
19679;SDS011;9989;48.962;9.182;2024-03-07T14:41:19;34.33;;;20.83;;
19679;SDS011;9989;48.962;9.182;2024-03-07T14:44:04;37.30;;;22.00;;
19679;SDS011;9989;48.962;9.182;2024-03-07T14:46:32;39.73;;;22.97;;
19679;SDS011;9989;48.962;9.182;2024-03-07T14:48:58;34.83;;;20.73;;
19679;SDS011;9989;48.962;9.182;2024-03-07T14:51:24;36.60;;;22.70;;
19679;SDS011;9989;48.962;9.182;2024-03-07T14:53:51;37.70;;;23.17;;
19679;SDS011;9989;48.962;9.182;2024-03-07T14:56:16;39.07;;;24.83;;
19679;SDS011;9989;48.962;9.182;2024-03-07T14:58:44;40.57;;;23.67;;
19679;SDS011;9989;48.962;9.182;2024-03-07T15:01:11;36.23;;;24.27;;
19679;SDS011;9989;48.962;9.182;2024-03-07T15:03:38;35.53;;;22.43;;
19679;SDS011;9989;48.962;9.182;2024-03-07T15:06:04;42.77;;;24.13;;
19679;SDS011;9989;48.962;9.182;2024-03-07T15:11:55;35.07;;;21.73;;
19679;SDS011;9989;48.962;9.182;2024-03-07T15:14:20;37.83;;;21.20;;
19679;SDS011;9989;48.962;9.182;2024-03-07T15:16:46;35.67;;;20.27;;
19679;SDS011;9989;48.962;9.182;2024-03-07T15:19:13;32.63;;;18.87;;
19679;SDS011;9989;48.962;9.182;2024-03-07T15:21:40;34.80;;;20.10;;
19679;SDS011;9989;48.962;9.182;2024-03-07T15:24:06;35.77;;;20.50;;
19679;SDS011;9989;48.962;9.182;2024-03-07T15:26:32;36.50;;;20.67;;